Akebono — JG5644 — position and weather

sailwx.info

Track history (hours):
 
Tides and Currents Weather Stations Pressure Air Temp Water Temp Dewpoint Dewpoint Depression Visibility Wind Speed Wind Dir Waves Ship Positions

Akebono

Last reported at 2014-Jul-30 10:03 UTC. Time now 2014-Jul-30 15:17 UTC.
Position N 35°27' E 139°39'.

Length 33 m; draft 4.4 m.

Type: Tug. MMSI: 431000233.

Date/timePositionNaut miles runAvg speedWind from/ knotsBaromVisibWave heightAir tempDewpointWater temp
2014-Jul-30 10:03N 35°27' E 139°39'2 3.9
2014-Jul-30 09:34N 35°27' E 139°41'0 0.0
2014-Jul-30 08:34N 35°27' E 139°41'1 1.2
2014-Jul-30 07:34N 35°27' E 139°42'3 2.5
2014-Jul-30 06:33N 35°29' E 139°44'2 1.6
2014-Jul-30 05:34N 35°28' E 139°46'1 1.1
2014-Jul-30 04:34N 35°29' E 139°46'1 1.0
2014-Jul-30 03:33N 35°28' E 139°44'1 1.0
2014-Jul-30 02:33N 35°27' E 139°45'2 1.9
2014-Jul-30 01:33N 35°27' E 139°42'0 0.0
2014-Jul-30 00:34N 35°27' E 139°42'1 1.2
2014-Jul-29 23:34N 35°27' E 139°41'2 2.1
2014-Jul-29 22:33N 35°26' E 139°43'4 3.7
2014-Jul-29 21:33N 35°28' E 139°39'0 0.0
2014-Jul-29 07:10N 35°27' E 139°38'0 0.0
2014-Jul-29 06:34N 35°27' E 139°38'0 0.0
2014-Jul-29 05:34N 35°27' E 139°38'0 0.0
2014-Jul-29 04:34N 35°27' E 139°38'0 0.0
2014-Jul-29 03:33N 35°27' E 139°38'0 0.0
2014-Jul-29 02:34N 35°27' E 139°38'0 0.0
2014-Jul-29 01:34N 35°27' E 139°38'0 0.0
2014-Jul-29 00:33N 35°27' E 139°38'0 0.0
2014-Jul-28 23:34N 35°27' E 139°38'1 1.2
2014-Jul-28 22:34N 35°28' E 139°39'1 1.3
2014-Jul-28 21:33N 35°27' E 139°40'1 1.4
2014-Jul-28 20:33N 35°27' E 139°39'0 0.0
2014-Jul-28 19:33N 35°27' E 139°39'0 0.0
2014-Jul-28 18:33N 35°27' E 139°39'0 0.0
2014-Jul-28 17:33N 35°27' E 139°39'0 0.0
2014-Jul-28 16:33N 35°27' E 139°39'0 0.0
2014-Jul-28 15:33N 35°27' E 139°39'0 0.0
2014-Jul-28 14:33N 35°27' E 139°39'0 0.0
2014-Jul-28 13:33N 35°27' E 139°39'0 0.0
2014-Jul-28 12:33N 35°27' E 139°39'0 0.0
2014-Jul-28 11:33N 35°27' E 139°39'0 0.0
2014-Jul-28 10:33N 35°27' E 139°39'3 2.8
2014-Jul-28 09:33N 35°28' E 139°42'1 0.8
2014-Jul-28 08:33N 35°28' E 139°41'2 2.4
2014-Jul-28 07:33N 35°27' E 139°38'0 0.0
2014-Jul-28 06:33N 35°27' E 139°38'0 0.0
2014-Jul-28 05:33N 35°27' E 139°38'0 0.0
2014-Jul-28 04:33N 35°27' E 139°38'0 0.0
2014-Jul-28 03:33N 35°27' E 139°38'0 0.0
2014-Jul-28 02:33N 35°27' E 139°38'0 0.0
2014-Jul-28 01:33N 35°27' E 139°38'0 0.0
2014-Jul-28 00:33N 35°27' E 139°38'0 0.0
2014-Jul-27 23:33N 35°27' E 139°38'0 0.0
2014-Jul-27 22:33N 35°27' E 139°38'2 2.1
2014-Jul-27 21:34N 35°27' E 139°41'2 2.1
2014-Jul-27 20:33N 35°27' E 139°38'3 0.3
2014-Jul-27 11:34N 35°27' E 139°42'3 2.8
2014-Jul-27 10:34N 35°29' E 139°45'2 2.2
2014-Jul-27 09:34N 35°27' E 139°46'4 3.7
2014-Jul-27 08:34N 35°28' E 139°42'0 0.2
2014-Jul-27 07:33N 35°28' E 139°42'0 0.4
2014-Jul-27 06:33N 35°27' E 139°42'2 1.5
2014-Jul-27 05:33N 35°27' E 139°41'4 4.3
2014-Jul-27 04:33N 35°29' E 139°45'2 2.2
2014-Jul-27 03:33N 35°27' E 139°43'2 2.2
2014-Jul-27 02:33N 35°28' E 139°40'0 0.0
2014-Jul-27 01:33N 35°28' E 139°40'0 0.0
2014-Jul-27 00:33N 35°28' E 139°40'1 1.0
2014-Jul-26 23:33N 35°28' E 139°42'3 2.8
2014-Jul-26 22:34N 35°26' E 139°45'5 5.2
2014-Jul-26 21:33N 35°27' E 139°38'1 0.0
2014-Jul-26 10:34N 35°28' E 139°39'2 1.5
2014-Jul-26 09:33N 35°27' E 139°41'1 0.9
2014-Jul-26 08:33N 35°27' E 139°42'1 0.8
2014-Jul-26 07:33N 35°28' E 139°42'2 1.8
2014-Jul-26 06:34N 35°27' E 139°39'0 0.0
2014-Jul-26 05:33N 35°27' E 139°39'1 0.8
2014-Jul-26 04:34N 35°27' E 139°40'1 0.9
2014-Jul-26 03:33N 35°28' E 139°40'1 1.5
2014-Jul-26 02:34N 35°28' E 139°42'2 2.2
2014-Jul-26 01:33N 35°27' E 139°39'1 0.8
2014-Jul-26 00:33N 35°27' E 139°38'0 0.0
2014-Jul-25 23:33N 35°27' E 139°38'0 0.0
2014-Jul-25 22:33N 35°27' E 139°38'0 0.0
2014-Jul-25 21:33N 35°27' E 139°38'0 0.0
2014-Jul-24 22:26N 35°27' E 139°38'3 2.9
2014-Jul-24 21:34N 35°27' E 139°41'1 1.1
2014-Jul-24 20:33N 35°26' E 139°42'0 0.0
2014-Jul-24 19:33N 35°26' E 139°42'0 0.0
2014-Jul-24 18:33N 35°26' E 139°42'0 0.0
2014-Jul-24 17:33N 35°26' E 139°42'1 1.0
2014-Jul-24 16:33N 35°27' E 139°41'0 0.3
2014-Jul-24 15:33N 35°27' E 139°41'1 0.9
2014-Jul-24 14:34N 35°28' E 139°40'0 0.0
2014-Jul-24 13:33N 35°28' E 139°40'0 0.0
2014-Jul-24 12:33N 35°28' E 139°40'1 0.6
2014-Jul-24 11:33N 35°27' E 139°40'2 1.7
2014-Jul-24 10:33N 35°26' E 139°42'1 1.1
2014-Jul-24 09:33N 35°27' E 139°42'0 0.0
2014-Jul-24 08:34N 35°27' E 139°42'2 1.6
2014-Jul-24 07:33N 35°26' E 139°41'2 2.2
2014-Jul-24 06:33N 35°27' E 139°38'0 0.0
2014-Jul-24 05:33N 35°27' E 139°38'0 0.0
2014-Jul-24 04:33N 35°27' E 139°38'0 0.0
2014-Jul-24 03:33N 35°27' E 139°38'0 0.0
2014-Jul-24 02:33N 35°27' E 139°38'0 0.0
2014-Jul-24 01:33N 35°27' E 139°38'0 0.0
2014-Jul-24 00:33N 35°27' E 139°38'0 0.0
2014-Jul-23 23:33N 35°27' E 139°38'0 0.0
2014-Jul-23 22:33N 35°27' E 139°38'0 0.0
2014-Jul-23 07:17N 35°27' E 139°38'1 1.5
2014-Jul-23 06:33N 35°28' E 139°39'2 1.8
2014-Jul-23 05:33N 35°28' E 139°41'0 0.0
2014-Jul-23 04:33N 35°28' E 139°41'4 4.1
2014-Jul-23 03:33N 35°24' E 139°38'0 0.0
2014-Jul-23 02:33N 35°24' E 139°38'3 2.7
2014-Jul-23 01:33N 35°23' E 139°41'5 5.2
2014-Jul-23 00:34N 35°28' E 139°39'0 0.2
2014-Jul-22 23:33N 35°27' E 139°38'0 0.0
2014-Jul-22 22:33N 35°27' E 139°38'0 0.0
2014-Jul-22 21:33N 35°27' E 139°38'0 0.0
2014-Jul-22 07:33N 35°28' E 139°39'1 0.9
2014-Jul-22 06:34N 35°27' E 139°39'7 6.9
2014-Jul-22 05:33N 35°30' E 139°47'9 8.5
2014-Jul-22 04:33N 35°30' E 139°58'2 2.5
2014-Jul-22 03:33N 35°29' E 140°01'1 1.4
2014-Jul-22 02:33N 35°30' E 139°59'0 0.4
2014-Jul-22 01:33N 35°29' E 139°59'0 0.3
2014-Jul-22 00:33N 35°29' E 139°58'8 7.9
2014-Jul-21 23:33N 35°28' E 139°49'6 6.4
2014-Jul-21 22:34N 35°28' E 139°41'2 1.7
2014-Jul-21 21:33N 35°27' E 139°43'3 3.5
2014-Jul-21 20:33N 35°27' E 139°38'0 0.0
2014-Jul-21 07:10N 35°27' E 139°38'0 0.0
2014-Jul-21 06:33N 35°27' E 139°38'0 0.0
2014-Jul-21 05:34N 35°27' E 139°38'0 0.0
2014-Jul-21 04:34N 35°27' E 139°38'0 0.0
2014-Jul-21 03:34N 35°27' E 139°38'3 2.9
2014-Jul-21 02:34N 35°27' E 139°42'5 4.9
2014-Jul-21 01:34N 35°29' E 139°47'2 1.5
2014-Jul-21 00:33N 35°28' E 139°47'1 1.4
2014-Jul-20 23:33N 35°29' E 139°46'0 0.0
2014-Jul-20 22:34N 35°29' E 139°46'2 1.7
2014-Jul-20 21:33N 35°30' E 139°45'6 6.3
2014-Jul-20 20:33N 35°28' E 139°39'  
Track history (hours):
 
Tides and Currents Weather Stations Pressure Air Temp Water Temp Dewpoint Dewpoint Depression Visibility Wind Speed Wind Dir Waves Ship Positions

Akebono

Last reported at 2014-Jul-30 10:03 UTC. Time now 2014-Jul-30 15:17 UTC.
Position N 35°27' E 139°39'.

Length 33 m; draft 4.4 m.

Type: Tug. MMSI: 431000233.

Date/timePositionNaut miles runAvg speedWind from/ knotsBaromVisibWave heightAir tempDewpointWater temp
2014-Jul-30 10:03N 35°27' E 139°39'2 3.9
2014-Jul-30 09:34N 35°27' E 139°41'0 0.0
2014-Jul-30 08:34N 35°27' E 139°41'1 1.2
2014-Jul-30 07:34N 35°27' E 139°42'3 2.5
2014-Jul-30 06:33N 35°29' E 139°44'2 1.6
2014-Jul-30 05:34N 35°28' E 139°46'1 1.1
2014-Jul-30 04:34N 35°29' E 139°46'1 1.0
2014-Jul-30 03:33N 35°28' E 139°44'1 1.0
2014-Jul-30 02:33N 35°27' E 139°45'2 1.9
2014-Jul-30 01:33N 35°27' E 139°42'0 0.0
2014-Jul-30 00:34N 35°27' E 139°42'1 1.2
2014-Jul-29 23:34N 35°27' E 139°41'2 2.1
2014-Jul-29 22:33N 35°26' E 139°43'4 3.7
2014-Jul-29 21:33N 35°28' E 139°39'0 0.0
2014-Jul-29 07:10N 35°27' E 139°38'0 0.0
2014-Jul-29 06:34N 35°27' E 139°38'0 0.0
2014-Jul-29 05:34N 35°27' E 139°38'0 0.0
2014-Jul-29 04:34N 35°27' E 139°38'0 0.0
2014-Jul-29 03:33N 35°27' E 139°38'0 0.0
2014-Jul-29 02:34N 35°27' E 139°38'0 0.0
2014-Jul-29 01:34N 35°27' E 139°38'0 0.0
2014-Jul-29 00:33N 35°27' E 139°38'0 0.0
2014-Jul-28 23:34N 35°27' E 139°38'1 1.2
2014-Jul-28 22:34N 35°28' E 139°39'1 1.3
2014-Jul-28 21:33N 35°27' E 139°40'1 1.4
2014-Jul-28 20:33N 35°27' E 139°39'0 0.0
2014-Jul-28 19:33N 35°27' E 139°39'0 0.0
2014-Jul-28 18:33N 35°27' E 139°39'0 0.0
2014-Jul-28 17:33N 35°27' E 139°39'0 0.0
2014-Jul-28 16:33N 35°27' E 139°39'0 0.0
2014-Jul-28 15:33N 35°27' E 139°39'0 0.0
2014-Jul-28 14:33N 35°27' E 139°39'0 0.0
2014-Jul-28 13:33N 35°27' E 139°39'0 0.0
2014-Jul-28 12:33N 35°27' E 139°39'0 0.0
2014-Jul-28 11:33N 35°27' E 139°39'0 0.0
2014-Jul-28 10:33N 35°27' E 139°39'3 2.8
2014-Jul-28 09:33N 35°28' E 139°42'1 0.8
2014-Jul-28 08:33N 35°28' E 139°41'2 2.4
2014-Jul-28 07:33N 35°27' E 139°38'0 0.0
2014-Jul-28 06:33N 35°27' E 139°38'0 0.0
2014-Jul-28 05:33N 35°27' E 139°38'0 0.0
2014-Jul-28 04:33N 35°27' E 139°38'0 0.0
2014-Jul-28 03:33N 35°27' E 139°38'0 0.0
2014-Jul-28 02:33N 35°27' E 139°38'0 0.0
2014-Jul-28 01:33N 35°27' E 139°38'0 0.0
2014-Jul-28 00:33N 35°27' E 139°38'0 0.0
2014-Jul-27 23:33N 35°27' E 139°38'0 0.0
2014-Jul-27 22:33N 35°27' E 139°38'2 2.1
2014-Jul-27 21:34N 35°27' E 139°41'2 2.1
2014-Jul-27 20:33N 35°27' E 139°38'3 0.3
2014-Jul-27 11:34N 35°27' E 139°42'3 2.8
2014-Jul-27 10:34N 35°29' E 139°45'2 2.2
2014-Jul-27 09:34N 35°27' E 139°46'4 3.7
2014-Jul-27 08:34N 35°28' E 139°42'0 0.2
2014-Jul-27 07:33N 35°28' E 139°42'0 0.4
2014-Jul-27 06:33N 35°27' E 139°42'2 1.5
2014-Jul-27 05:33N 35°27' E 139°41'4 4.3
2014-Jul-27 04:33N 35°29' E 139°45'2 2.2
2014-Jul-27 03:33N 35°27' E 139°43'2 2.2
2014-Jul-27 02:33N 35°28' E 139°40'0 0.0
2014-Jul-27 01:33N 35°28' E 139°40'0 0.0
2014-Jul-27 00:33N 35°28' E 139°40'1 1.0
2014-Jul-26 23:33N 35°28' E 139°42'3 2.8
2014-Jul-26 22:34N 35°26' E 139°45'5 5.2
2014-Jul-26 21:33N 35°27' E 139°38'1 0.0
2014-Jul-26 10:34N 35°28' E 139°39'2 1.5
2014-Jul-26 09:33N 35°27' E 139°41'1 0.9
2014-Jul-26 08:33N 35°27' E 139°42'1 0.8
2014-Jul-26 07:33N 35°28' E 139°42'2 1.8
2014-Jul-26 06:34N 35°27' E 139°39'0 0.0
2014-Jul-26 05:33N 35°27' E 139°39'1 0.8
2014-Jul-26 04:34N 35°27' E 139°40'1 0.9
2014-Jul-26 03:33N 35°28' E 139°40'1 1.5
2014-Jul-26 02:34N 35°28' E 139°42'2 2.2
2014-Jul-26 01:33N 35°27' E 139°39'1 0.8
2014-Jul-26 00:33N 35°27' E 139°38'0 0.0
2014-Jul-25 23:33N 35°27' E 139°38'0 0.0
2014-Jul-25 22:33N 35°27' E 139°38'0 0.0
2014-Jul-25 21:33N 35°27' E 139°38'0 0.0
2014-Jul-24 22:26N 35°27' E 139°38'3 2.9
2014-Jul-24 21:34N 35°27' E 139°41'1 1.1
2014-Jul-24 20:33N 35°26' E 139°42'0 0.0
2014-Jul-24 19:33N 35°26' E 139°42'0 0.0
2014-Jul-24 18:33N 35°26' E 139°42'0 0.0
2014-Jul-24 17:33N 35°26' E 139°42'1 1.0
2014-Jul-24 16:33N 35°27' E 139°41'0 0.3
2014-Jul-24 15:33N 35°27' E 139°41'1 0.9
2014-Jul-24 14:34N 35°28' E 139°40'0 0.0
2014-Jul-24 13:33N 35°28' E 139°40'0 0.0
2014-Jul-24 12:33N 35°28' E 139°40'1 0.6
2014-Jul-24 11:33N 35°27' E 139°40'2 1.7
2014-Jul-24 10:33N 35°26' E 139°42'1 1.1
2014-Jul-24 09:33N 35°27' E 139°42'0 0.0
2014-Jul-24 08:34N 35°27' E 139°42'2 1.6
2014-Jul-24 07:33N 35°26' E 139°41'2 2.2
2014-Jul-24 06:33N 35°27' E 139°38'0 0.0
2014-Jul-24 05:33N 35°27' E 139°38'0 0.0
2014-Jul-24 04:33N 35°27' E 139°38'0 0.0
2014-Jul-24 03:33N 35°27' E 139°38'0 0.0
2014-Jul-24 02:33N 35°27' E 139°38'0 0.0
2014-Jul-24 01:33N 35°27' E 139°38'0 0.0
2014-Jul-24 00:33N 35°27' E 139°38'0 0.0
2014-Jul-23 23:33N 35°27' E 139°38'0 0.0
2014-Jul-23 22:33N 35°27' E 139°38'0 0.0
2014-Jul-23 07:17N 35°27' E 139°38'1 1.5
2014-Jul-23 06:33N 35°28' E 139°39'2 1.8
2014-Jul-23 05:33N 35°28' E 139°41'0 0.0
2014-Jul-23 04:33N 35°28' E 139°41'4 4.1
2014-Jul-23 03:33N 35°24' E 139°38'0 0.0
2014-Jul-23 02:33N 35°24' E 139°38'3 2.7
2014-Jul-23 01:33N 35°23' E 139°41'5 5.2
2014-Jul-23 00:34N 35°28' E 139°39'0 0.2
2014-Jul-22 23:33N 35°27' E 139°38'0 0.0
2014-Jul-22 22:33N 35°27' E 139°38'0 0.0
2014-Jul-22 21:33N 35°27' E 139°38'0 0.0
2014-Jul-22 07:33N 35°28' E 139°39'1 0.9
2014-Jul-22 06:34N 35°27' E 139°39'7 6.9
2014-Jul-22 05:33N 35°30' E 139°47'9 8.5
2014-Jul-22 04:33N 35°30' E 139°58'2 2.5
2014-Jul-22 03:33N 35°29' E 140°01'1 1.4
2014-Jul-22 02:33N 35°30' E 139°59'0 0.4
2014-Jul-22 01:33N 35°29' E 139°59'0 0.3
2014-Jul-22 00:33N 35°29' E 139°58'8 7.9
2014-Jul-21 23:33N 35°28' E 139°49'6 6.4
2014-Jul-21 22:34N 35°28' E 139°41'2 1.7
2014-Jul-21 21:33N 35°27' E 139°43'3 3.5
2014-Jul-21 20:33N 35°27' E 139°38'0 0.0
2014-Jul-21 07:10N 35°27' E 139°38'0 0.0
2014-Jul-21 06:33N 35°27' E 139°38'0 0.0
2014-Jul-21 05:34N 35°27' E 139°38'0 0.0
2014-Jul-21 04:34N 35°27' E 139°38'0 0.0
2014-Jul-21 03:34N 35°27' E 139°38'3 2.9
2014-Jul-21 02:34N 35°27' E 139°42'5 4.9
2014-Jul-21 01:34N 35°29' E 139°47'2 1.5
2014-Jul-21 00:33N 35°28' E 139°47'1 1.4
2014-Jul-20 23:33N 35°29' E 139°46'0 0.0
2014-Jul-20 22:34N 35°29' E 139°46'2 1.7
2014-Jul-20 21:33N 35°30' E 139°45'6 6.3
2014-Jul-20 20:33N 35°28' E 139°39'  

Dump ship's entire track history